Time;durP1;ratioP1;P1;durP2;ratioP2;P2;SDS_P1;SDS_P2;PMS_P1;PMS_P2;Temp;Humidity;BMP_temperature;BMP_pressure;BME280_temperature;BME280_humidity;BME280_pressure;Samples;Min_cycle;Max_cycle;Signal;HPM_P1;HPM_P2
2021/08/23 00:02:21;;;;;;;1.20;1.00;;;8.70;99.90;;;;;;5055345;28;20037;-71
2021/08/23 00:04:46;;;;;;;1.20;1.00;;;8.70;99.90;;;;;;5054848;28;20029;-71
2021/08/23 00:07:12;;;;;;;4.60;1.30;;;8.70;99.90;;;;;;5054911;28;20098;-71
2021/08/23 00:09:38;;;;;;;1.58;0.98;;;8.70;99.90;;;;;;5054838;28;20027;-71
2021/08/23 00:12:05;;;;;;;1.10;0.90;;;8.60;99.90;;;;;;5054935;28;20021;-70
2021/08/23 00:14:30;;;;;;;1.77;0.98;;;8.60;99.90;;;;;;5054644;28;20033;-71
2021/08/23 00:16:56;;;;;;;2.15;0.90;;;8.60;99.90;;;;;;5054846;28;20032;-71
2021/08/23 00:19:22;;;;;;;1.00;0.85;;;8.60;99.90;;;;;;5054989;28;20128;-71
2021/08/23 00:22:00;;;;;;;2.22;1.00;;;8.60;99.90;;;;;;5054769;28;20074;-71
2021/08/23 00:24:26;;;;;;;2.10;1.15;;;8.60;99.90;;;;;;5054856;28;20111;-71
2021/08/23 00:26:55;;;;;;;1.75;1.00;;;8.60;99.90;;;;;;5054626;28;20029;-71
2021/08/23 00:29:22;;;;;;;2.78;1.20;;;8.60;99.90;;;;;;5054988;28;20037;-71
2021/08/23 00:31:48;;;;;;;7.78;1.30;;;8.50;99.90;;;;;;5054816;28;20040;-71
2021/08/23 00:34:14;;;;;;;2.38;1.05;;;8.50;99.90;;;;;;5053349;28;20048;-71
2021/08/23 00:36:40;;;;;;;1.45;1.00;;;8.50;99.90;;;;;;5054802;28;20025;-71
2021/08/23 00:39:07;;;;;;;1.33;1.00;;;8.50;99.90;;;;;;5054800;28;20074;-71
2021/08/23 00:41:34;;;;;;;1.58;0.90;;;8.50;99.90;;;;;;5054662;28;20025;-71
2021/08/23 00:44:00;;;;;;;1.77;1.10;;;8.50;99.90;;;;;;5054662;28;20033;-71
2021/08/23 00:46:26;;;;;;;2.03;0.98;;;8.50;99.90;;;;;;5054718;28;20037;-71
2021/08/23 00:48:53;;;;;;;2.08;1.00;;;8.50;99.90;;;;;;5054176;28;20040;-71
2021/08/23 00:51:20;;;;;;;4.45;1.60;;;8.40;99.90;;;;;;5053025;28;20028;-70
2021/08/23 00:53:47;;;;;;;2.15;1.17;;;8.50;99.90;;;;;;5053953;28;20044;-70
2021/08/23 00:56:18;;;;;;;5.15;1.30;;;8.50;99.90;;;;;;5054003;28;20049;-70
2021/08/23 00:58:44;;;;;;;1.30;1.07;;;8.40;99.90;;;;;;5053879;28;20547;-70
2021/08/23 01:01:16;;;;;;;1.20;0.77;;;8.40;99.90;;;;;;5054374;28;20029;-71
2021/08/23 01:03:56;;;;;;;1.80;0.90;;;8.30;99.90;;;;;;5053274;28;20448;-71
2021/08/23 01:06:23;;;;;;;1.07;0.87;;;8.40;99.90;;;;;;5053902;28;20025;-71
2021/08/23 01:08:51;;;;;;;2.42;1.17;;;8.40;99.90;;;;;;5053757;28;20025;-70
2021/08/23 01:11:19;;;;;;;1.58;1.00;;;8.30;99.90;;;;;;5054148;28;20029;-71
2021/08/23 01:13:47;;;;;;;1.42;0.90;;;8.30;99.90;;;;;;5053647;28;20032;-71
2021/08/23 01:16:13;;;;;;;1.70;1.10;;;8.30;99.90;;;;;;5054007;28;20035;-71
2021/08/23 01:47:43;;;;;;;1.95;0.98;;;7.70;99.90;;;;;;5052928;28;20464;-71
2021/08/23 01:50:09;;;;;;;2.15;1.20;;;7.60;99.90;;;;;;5051740;28;20025;-71
2021/08/23 01:52:35;;;;;;;3.25;0.90;;;7.60;99.90;;;;;;5053126;28;20036;-71
2021/08/23 01:55:00;;;;;;;2.45;0.95;;;7.60;99.90;;;;;;5053253;28;20091;-71
2021/08/23 01:57:27;;;;;;;1.15;0.90;;;7.50;99.90;;;;;;5052915;28;20487;-71
2021/08/23 01:59:53;;;;;;;2.05;1.20;;;7.50;99.90;;;;;;5052959;28;20036;-71
2021/08/23 02:02:19;;;;;;;1.88;0.90;;;7.40;99.90;;;;;;5052781;28;20075;-71
2021/08/23 02:04:44;;;;;;;2.00;1.33;;;7.40;99.90;;;;;;5053159;28;20021;-71
2021/08/23 02:07:10;;;;;;;3.33;1.05;;;7.40;99.90;;;;;;5052997;28;20029;-71
2021/08/23 02:09:36;;;;;;;1.40;0.93;;;7.40;99.90;;;;;;5053073;28;20028;-70
2021/08/23 02:12:02;;;;;;;1.75;0.88;;;7.30;99.90;;;;;;5053073;28;20060;-70
2021/08/23 02:14:28;;;;;;;2.72;0.90;;;7.30;99.90;;;;;;5052812;28;20032;-70
2021/08/23 02:16:54;;;;;;;0.82;0.82;;;7.30;99.90;;;;;;5051980;28;20021;-70
2021/08/23 02:19:21;;;;;;;3.15;0.90;;;7.20;99.90;;;;;;5052352;28;20033;-70
2021/08/23 02:21:49;;;;;;;5.38;0.80;;;7.20;99.90;;;;;;5052739;28;20075;-70
2021/08/23 02:24:15;;;;;;;1.38;1.10;;;7.10;99.90;;;;;;5052205;28;20490;-70
2021/08/23 02:26:41;;;;;;;1.40;0.80;;;7.00;99.90;;;;;;5052417;28;20051;-70
2021/08/23 02:29:07;;;;;;;4.30;1.70;;;7.00;99.90;;;;;;5052193;28;20116;-70
2021/08/23 02:31:32;;;;;;;1.17;0.90;;;7.00;99.90;;;;;;5052604;28;20036;-70
2021/08/23 02:33:58;;;;;;;1.42;1.10;;;7.00;99.90;;;;;;5052297;28;20495;-70
2021/08/23 02:36:24;;;;;;;1.17;0.90;;;7.00;99.90;;;;;;5052416;28;20033;-70
2021/08/23 02:38:50;;;;;;;1.38;0.85;;;6.90;99.90;;;;;;5052293;28;20029;-73
2021/08/23 02:41:15;;;;;;;3.50;1.05;;;6.90;99.90;;;;;;5052364;28;20040;-72
2021/08/23 02:43:41;;;;;;;1.70;0.90;;;6.90;99.90;;;;;;5052325;28;20033;-72
2021/08/23 02:46:07;;;;;;;1.52;1.05;;;6.90;99.90;;;;;;5052298;28;20032;-72
2021/08/23 02:48:33;;;;;;;4.07;2.17;;;6.90;99.90;;;;;;5052086;28;20029;-72
2021/08/23 02:50:59;;;;;;;2.35;0.80;;;6.90;99.90;;;;;;5052008;28;20027;-72
2021/08/23 02:53:25;;;;;;;1.15;1.00;;;6.90;99.90;;;;;;5051797;28;20147;-72
2021/08/23 02:55:50;;;;;;;1.70;0.90;;;6.80;99.90;;;;;;5052253;28;20052;-72
2021/08/23 02:58:16;;;;;;;3.20;1.00;;;6.80;99.90;;;;;;5052170;28;20108;-72
2021/08/23 03:00:42;;;;;;;1.63;0.95;;;6.80;99.90;;;;;;5051903;28;20032;-71
2021/08/23 03:03:08;;;;;;;1.95;0.93;;;6.80;99.90;;;;;;5051912;28;20116;-71
2021/08/23 03:05:34;;;;;;;3.92;1.02;;;6.70;99.90;;;;;;5051982;28;20029;-71
2021/08/23 03:07:59;;;;;;;1.30;0.90;;;6.70;99.90;;;;;;5052167;28;20079;-71
2021/08/23 03:10:25;;;;;;;1.60;0.93;;;6.70;99.90;;;;;;5051666;28;20528;-71
2021/08/23 03:12:51;;;;;;;3.03;0.80;;;6.70;99.90;;;;;;5051815;28;20032;-71
2021/08/23 03:15:17;;;;;;;1.67;1.00;;;6.70;99.90;;;;;;5051872;28;20021;-71
2021/08/23 03:17:42;;;;;;;4.00;0.80;;;6.70;99.90;;;;;;5052194;28;20083;-71
2021/08/23 03:20:09;;;;;;;2.20;1.00;;;6.70;99.90;;;;;;5051747;28;20104;-71
2021/08/23 03:22:34;;;;;;;2.83;0.80;;;6.70;99.90;;;;;;5051744;28;20047;-71
2021/08/23 03:25:00;;;;;;;1.17;0.80;;;6.70;99.90;;;;;;5051678;28;20021;-70
2021/08/23 03:27:26;;;;;;;1.65;0.80;;;6.60;99.90;;;;;;5053201;28;20059;-70
2021/08/23 03:29:53;;;;;;;3.08;0.90;;;6.70;99.90;;;;;;5056101;28;20032;-70
2021/08/23 03:32:19;;;;;;;3.25;1.10;;;6.70;99.90;;;;;;5055718;28;20029;-71
2021/08/23 03:34:46;;;;;;;1.13;1.00;;;6.60;99.90;;;;;;5056066;28;20024;-71
2021/08/23 03:37:12;;;;;;;1.60;1.10;;;6.60;99.90;;;;;;5055568;28;20030;-71
2021/08/23 03:39:38;;;;;;;1.27;0.60;;;6.70;99.90;;;;;;5055805;28;20029;-72
2021/08/23 03:42:03;;;;;;;1.05;0.70;;;6.70;99.90;;;;;;5055763;28;20021;-72
2021/08/23 03:44:29;;;;;;;1.10;0.80;;;6.80;99.90;;;;;;5055317;28;20025;-72
2021/08/23 03:46:55;;;;;;;1.25;0.70;;;6.80;99.90;;;;;;5055500;28;20032;-72
2021/08/23 03:49:21;;;;;;;3.67;0.80;;;6.90;99.90;;;;;;5055275;28;20025;-72
2021/08/23 03:51:47;;;;;;;0.70;0.60;;;7.00;99.90;;;;;;5055367;28;20135;-71
2021/08/23 03:54:13;;;;;;;3.45;0.80;;;7.00;99.90;;;;;;5055041;28;20112;-72
2021/08/23 03:56:39;;;;;;;0.70;0.70;;;7.00;99.90;;;;;;5055278;28;20051;-71
2021/08/23 03:59:05;;;;;;;0.63;0.60;;;7.10;99.90;;;;;;5055129;28;20021;-71
2021/08/23 04:01:31;;;;;;;1.13;0.75;;;7.20;99.90;;;;;;5055079;28;20396;-72
2021/08/23 04:03:57;;;;;;;0.70;0.70;;;7.20;99.90;;;;;;5054928;28;20037;-72
2021/08/23 04:06:23;;;;;;;1.50;0.80;;;7.20;99.90;;;;;;5054822;28;20025;-72
2021/08/23 04:08:50;;;;;;;3.15;0.90;;;7.30;99.90;;;;;;5054972;28;20070;-72
2021/08/23 04:11:16;;;;;;;0.70;0.70;;;7.30;99.90;;;;;;5055046;28;20407;-72
2021/08/23 04:13:43;;;;;;;1.02;0.73;;;7.40;99.90;;;;;;5054948;28;20029;-72
2021/08/23 04:16:13;;;;;;;1.63;0.90;;;7.70;99.90;;;;;;5054715;28;20040;-71
2021/08/23 04:18:39;;;;;;;1.38;0.70;;;8.00;99.90;;;;;;5055138;28;20366;-70
2021/08/23 04:21:05;;;;;;;1.15;0.75;;;8.30;99.90;;;;;;5054659;28;20031;-71
2021/08/23 04:23:31;;;;;;;2.78;0.80;;;8.70;99.90;;;;;;5054718;28;20033;-71
2021/08/23 04:25:56;;;;;;;0.90;0.73;;;8.90;99.90;;;;;;5054899;28;20017;-71
2021/08/23 04:28:22;;;;;;;1.58;0.60;;;9.30;99.90;;;;;;5054470;28;20119;-71
2021/08/23 04:30:48;;;;;;;0.47;0.47;;;9.50;99.90;;;;;;5054410;28;20057;-69
2021/08/23 04:33:14;;;;;;;1.38;0.80;;;9.80;99.90;;;;;;5054300;28;20024;-70
2021/08/23 04:35:39;;;;;;;2.60;0.70;;;10.00;99.90;;;;;;5054437;28;20072;-69
2021/08/23 04:38:05;;;;;;;1.10;0.70;;;10.30;99.90;;;;;;5054278;28;20074;-69
2021/08/23 04:40:31;;;;;;;2.95;0.70;;;10.50;99.90;;;;;;5053541;28;20025;-69
2021/08/23 04:42:56;;;;;;;1.42;0.70;;;10.70;99.90;;;;;;5054394;28;20040;-68
2021/08/23 04:45:22;;;;;;;1.10;0.70;;;10.90;99.90;;;;;;5054205;28;20029;-71
2021/08/23 04:47:48;;;;;;;0.75;0.57;;;11.10;99.90;;;;;;5054685;28;20416;-70
2021/08/23 04:50:14;;;;;;;2.75;0.70;;;11.30;99.90;;;;;;5054339;28;20388;-71
2021/08/23 04:52:44;;;;;;;9.75;0.80;;;11.50;99.90;;;;;;5054134;28;20037;-70
2021/08/23 04:55:11;;;;;;;0.93;0.57;;;11.70;99.90;;;;;;5054125;28;20033;-75
2021/08/23 04:57:36;;;;;;;1.52;0.70;;;11.80;99.90;;;;;;5054236;28;20033;-75
2021/08/23 05:00:06;;;;;;;0.65;0.47;;;12.00;99.90;;;;;;5054227;28;20029;-74
2021/08/23 05:02:32;;;;;;;0.68;0.47;;;12.20;99.90;;;;;;5054053;28;20028;-70
2021/08/23 05:04:58;;;;;;;2.75;0.77;;;12.40;99.90;;;;;;5053810;28;20518;-70
2021/08/23 05:07:23;;;;;;;1.90;0.73;;;12.50;99.90;;;;;;5053946;28;20028;-70
2021/08/23 05:09:49;;;;;;;0.75;0.63;;;12.60;99.90;;;;;;5053650;28;20041;-70
2021/08/23 05:12:15;;;;;;;1.10;0.47;;;12.80;99.90;;;;;;5053911;28;20067;-72
2021/08/23 05:14:41;;;;;;;0.60;0.50;;;12.90;99.90;;;;;;5053734;28;20396;-70
2021/08/23 05:17:06;;;;;;;0.82;0.60;;;13.00;99.90;;;;;;5063724;28;20035;-71
2021/08/23 05:19:32;;;;;;;1.63;0.90;;;13.20;99.90;;;;;;5073336;28;20043;-70
2021/08/23 05:21:58;;;;;;;0.80;0.50;;;13.30;99.90;;;;;;5073527;28;20020;-72
2021/08/23 05:24:24;;;;;;;2.90;0.50;;;13.40;99.90;;;;;;5068060;28;20035;-71
2021/08/23 05:26:49;;;;;;;0.50;0.50;;;13.50;99.90;;;;;;5056159;28;20051;-71
2021/08/23 05:29:15;;;;;;;1.52;0.70;;;13.60;99.90;;;;;;5053592;28;20025;-71
2021/08/23 05:31:41;;;;;;;1.52;0.70;;;13.70;99.90;;;;;;5053860;28;20082;-71
2021/08/23 05:34:06;;;;;;;2.15;0.70;;;13.90;99.20;;;;;;5053381;28;20024;-71
2021/08/23 05:36:32;;;;;;;1.00;0.57;;;14.00;98.70;;;;;;5053239;28;20033;-71
2021/08/23 05:38:58;;;;;;;2.60;0.43;;;14.10;98.50;;;;;;5053325;28;20071;-71
2021/08/23 05:41:24;;;;;;;0.63;0.47;;;14.30;97.30;;;;;;5053142;28;20032;-71
2021/08/23 05:43:49;;;;;;;0.52;0.30;;;14.40;97.40;;;;;;5053377;28;20048;-71
2021/08/23 05:46:23;;;;;;;0.60;0.43;;;14.60;96.50;;;;;;5053065;28;20029;-71
2021/08/23 05:48:49;;;;;;;0.85;0.52;;;14.60;95.20;;;;;;5053043;28;20158;-71
2021/08/23 05:51:16;;;;;;;1.65;0.60;;;14.60;94.70;;;;;;5062155;28;20095;-71
2021/08/23 05:53:42;;;;;;;1.25;0.47;;;14.60;94.90;;;;;;5063124;28;20063;-72
2021/08/23 05:56:09;;;;;;;1.05;0.35;;;14.80;94.20;;;;;;5064331;28;20426;-68
2021/08/23 05:58:35;;;;;;;0.40;0.40;;;15.00;93.80;;;;;;5063753;28;20033;-68
2021/08/23 06:01:01;;;;;;;1.30;0.70;;;15.10;93.00;;;;;;5069424;28;20024;-68
2021/08/23 06:03:28;;;;;;;0.50;0.50;;;15.20;91.90;;;;;;5057988;28;20111;-68
2021/08/23 06:05:53;;;;;;;1.90;0.50;;;15.30;91.40;;;;;;5052928;28;20029;-69
2021/08/23 06:08:19;;;;;;;1.23;0.55;;;15.40;90.70;;;;;;5053054;28;20445;-69
2021/08/23 06:10:46;;;;;;;1.30;0.80;;;15.50;90.00;;;;;;5052753;28;20024;-68
2021/08/23 06:13:11;;;;;;;1.52;0.60;;;15.50;89.40;;;;;;5052750;28;20074;-69
2021/08/23 06:15:37;;;;;;;0.60;0.40;;;15.60;88.10;;;;;;5051320;28;20025;-68
2021/08/23 06:18:03;;;;;;;3.78;0.75;;;15.70;87.30;;;;;;5052935;28;20063;-71
2021/08/23 06:20:29;;;;;;;2.20;0.70;;;15.70;91.90;;;;;;5052464;28;20544;-68
2021/08/23 06:22:54;;;;;;;0.65;0.60;;;16.10;90.90;;;;;;5052471;28;20112;-69
2021/08/23 06:25:20;;;;;;;2.83;0.60;;;16.00;86.70;;;;;;5052146;28;20021;-69
2021/08/23 06:27:46;;;;;;;1.50;0.60;;;16.00;84.60;;;;;;5052695;28;20033;-69
2021/08/23 06:30:13;;;;;;;6.57;0.73;;;15.80;82.60;;;;;;5052549;28;20021;-69
2021/08/23 06:32:39;;;;;;;0.80;0.50;;;15.60;81.40;;;;;;5052198;28;20064;-69
2021/08/23 06:35:05;;;;;;;1.73;0.45;;;15.70;82.20;;;;;;5052222;28;20063;-69
2021/08/23 06:37:31;;;;;;;1.42;0.60;;;15.70;81.90;;;;;;5052316;28;20036;-69
2021/08/23 06:39:58;;;;;;;2.30;0.60;;;15.60;80.30;;;;;;5052195;28;20025;-69
2021/08/23 06:42:24;;;;;;;1.25;0.77;;;15.30;79.00;;;;;;5052234;28;20033;-69
2021/08/23 06:44:50;;;;;;;2.70;0.70;;;15.20;79.90;;;;;;5052081;28;20028;-69
2021/08/23 06:47:16;;;;;;;2.67;0.68;;;15.00;78.70;;;;;;5052163;28;20424;-69
2021/08/23 06:49:43;;;;;;;6.57;0.90;;;15.10;80.90;;;;;;5051775;28;20029;-69
2021/08/23 06:52:09;;;;;;;4.75;0.75;;;15.10;79.30;;;;;;5051825;28;20025;-67
2021/08/23 06:54:35;;;;;;;8.20;0.80;;;15.10;77.90;;;;;;5052139;28;20119;-68
2021/08/23 06:57:01;;;;;;;1.10;0.60;;;15.00;79.20;;;;;;5051962;28;20477;-68
2021/08/23 06:59:28;;;;;;;1.48;0.60;;;14.90;78.30;;;;;;5052111;28;20033;-68
2021/08/23 07:01:54;;;;;;;0.60;0.40;;;14.70;78.50;;;;;;5051558;28;20029;-67
2021/08/23 07:04:20;;;;;;;1.10;0.45;;;14.60;79.10;;;;;;5052033;28;20155;-67
2021/08/23 07:06:46;;;;;;;1.15;0.75;;;14.60;79.40;;;;;;5051522;28;20104;-70
2021/08/23 07:09:12;;;;;;;0.70;0.43;;;14.50;78.70;;;;;;5051746;28;20036;-68
2021/08/23 07:11:38;;;;;;;13.77;2.22;;;14.50;78.70;;;;;;5051620;28;20057;-68
2021/08/23 07:14:04;;;;;;;0.98;0.50;;;14.50;80.40;;;;;;5051792;28;20060;-68
2021/08/23 07:16:30;;;;;;;0.95;0.40;;;14.50;79.40;;;;;;5051564;28;20029;-68
2021/08/23 07:18:56;;;;;;;0.50;0.40;;;14.40;78.50;;;;;;5052149;28;20025;-68
2021/08/23 07:21:21;;;;;;;1.85;0.75;;;14.30;78.20;;;;;;5051654;28;20392;-67
2021/08/23 07:23:47;;;;;;;0.70;0.40;;;14.20;79.50;;;;;;5051632;28;20068;-67
2021/08/23 07:26:14;;;;;;;0.60;0.40;;;14.20;78.90;;;;;;5051668;28;20096;-67
2021/08/23 07:28:40;;;;;;;0.65;0.50;;;14.20;79.40;;;;;;5051840;28;20475;-68
2021/08/23 07:31:06;;;;;;;3.92;0.80;;;14.20;79.00;;;;;;5052000;28;20415;-67
2021/08/23 07:33:32;;;;;;;1.33;0.55;;;14.20;80.00;;;;;;5055488;28;20021;-67
2021/08/23 07:35:57;;;;;;;0.55;0.40;;;14.30;79.60;;;;;;5071903;28;20025;-67
2021/08/23 07:38:23;;;;;;;7.35;0.93;;;14.20;79.30;;;;;;5065039;28;20735;-69
2021/08/23 07:40:49;;;;;;;1.10;0.65;;;14.30;80.70;;;;;;5061320;28;20024;-66
2021/08/23 07:43:15;;;;;;;1.88;0.60;;;14.40;80.00;;;;;;5062418;28;20032;-66
2021/08/23 07:45:41;;;;;;;0.88;0.52;;;14.30;80.00;;;;;;5065108;28;20027;-66
2021/08/23 07:48:07;;;;;;;1.00;0.60;;;14.30;80.60;;;;;;5071433;28;20024;-66
2021/08/23 07:50:34;;;;;;;3.22;0.50;;;14.30;80.10;;;;;;5071294;28;20020;-68
2021/08/23 07:52:59;;;;;;;1.92;0.50;;;14.10;79.60;;;;;;5067270;28;20128;-67
2021/08/23 07:55:26;;;;;;;4.28;0.50;;;14.00;79.30;;;;;;5051477;28;20096;-67
2021/08/23 07:57:52;;;;;;;1.10;0.50;;;14.00;79.10;;;;;;5051413;28;20025;-67
2021/08/23 08:00:20;;;;;;;1.40;0.50;;;13.90;79.50;;;;;;5051340;28;20021;-67
2021/08/23 08:02:46;;;;;;;4.53;0.80;;;13.90;80.70;;;;;;5051208;28;20029;-67
2021/08/23 08:05:14;;;;;;;0.70;0.38;;;14.00;80.50;;;;;;5051176;28;20031;-66
2021/08/23 08:07:41;;;;;;;0.70;0.50;;;13.90;80.70;;;;;;5051425;28;20083;-66
2021/08/23 08:10:09;;;;;;;0.85;0.30;;;13.80;80.90;;;;;;5051546;28;20025;-66
2021/08/23 08:12:35;;;;;;;1.05;0.40;;;13.80;81.20;;;;;;5066451;28;20098;-66
2021/08/23 08:15:01;;;;;;;0.70;0.50;;;13.90;81.10;;;;;;5073495;28;20487;-66
2021/08/23 08:17:27;;;;;;;0.73;0.40;;;14.00;82.30;;;;;;5074782;28;20028;-66
2021/08/23 08:19:53;;;;;;;5.18;0.73;;;14.10;82.50;;;;;;5063467;28;20029;-66
2021/08/23 08:22:19;;;;;;;2.03;0.47;;;14.10;80.00;;;;;;5054518;28;20119;-66
2021/08/23 08:24:45;;;;;;;1.63;0.47;;;14.10;80.00;;;;;;5056439;28;20021;-66
2021/08/23 08:27:11;;;;;;;1.20;0.50;;;13.90;78.40;;;;;;5074821;28;20365;-69
2021/08/23 08:29:37;;;;;;;0.30;0.30;;;13.80;80.10;;;;;;5074735;28;20439;-67
2021/08/23 08:32:04;;;;;;;0.50;0.35;;;13.70;79.40;;;;;;5062165;28;20029;-68
2021/08/23 08:34:31;;;;;;;2.00;0.60;;;13.60;80.50;;;;;;5054280;28;20024;-67
2021/08/23 08:36:56;;;;;;;1.48;0.40;;;13.60;80.80;;;;;;5054589;28;20376;-68
2021/08/23 08:39:22;;;;;;;1.67;0.50;;;13.50;80.20;;;;;;5054563;28;20032;-68
2021/08/23 08:41:48;;;;;;;2.67;0.40;;;13.50;82.10;;;;;;5054100;28;20025;-68
2021/08/23 08:44:13;;;;;;;1.35;0.40;;;13.60;82.40;;;;;;5054157;28;20051;-67
2021/08/23 08:46:40;;;;;;;5.00;0.60;;;13.60;82.30;;;;;;5054306;28;20025;-67
2021/08/23 08:49:10;;;;;;;1.90;0.55;;;13.60;80.70;;;;;;5054220;28;20060;-67
2021/08/23 08:51:37;;;;;;;4.28;0.50;;;13.60;82.40;;;;;;5054135;28;20048;-68
2021/08/23 08:54:06;;;;;;;1.77;0.70;;;13.60;81.40;;;;;;5053981;28;20048;-67
2021/08/23 08:56:33;;;;;;;3.95;0.63;;;13.60;81.90;;;;;;5054207;28;20477;-67
2021/08/23 08:58:59;;;;;;;0.45;0.30;;;13.70;84.00;;;;;;5054068;28;20115;-72
2021/08/23 09:01:25;;;;;;;1.75;0.50;;;13.90;84.10;;;;;;5053967;28;20384;-69
2021/08/23 09:03:51;;;;;;;0.57;0.50;;;13.90;82.20;;;;;;5053896;28;20033;-69
2021/08/23 09:06:17;;;;;;;1.92;0.63;;;13.80;82.30;;;;;;5054175;28;20472;-68
2021/08/23 09:08:45;;;;;;;3.33;0.52;;;13.80;81.70;;;;;;5053862;28;20285;-68
2021/08/23 09:11:17;;;;;;;4.43;0.70;;;13.80;81.30;;;;;;5053884;28;20071;-68
2021/08/23 09:14:01;;;;;;;1.30;0.57;;;13.70;81.90;;;;;;5053753;28;20064;-67
2021/08/23 09:16:28;;;;;;;1.63;0.60;;;13.60;81.10;;;;;;5053777;28;20029;-67
2021/08/23 09:18:55;;;;;;;14.55;0.85;;;13.50;82.10;;;;;;5053764;28;20472;-68
2021/08/23 09:21:29;;;;;;;0.55;0.40;;;13.60;82.80;;;;;;5053665;28;20027;-68
2021/08/23 09:23:57;;;;;;;6.80;0.80;;;13.60;82.30;;;;;;5053815;28;20099;-68
2021/08/23 09:26:30;;;;;;;7.22;0.60;;;13.70;82.70;;;;;;5053390;28;20025;-68
2021/08/23 09:29:01;;;;;;;1.08;0.75;;;13.70;82.80;;;;;;5062006;28;20115;-68
2021/08/23 09:31:29;;;;;;;1.08;0.50;;;13.80;81.60;;;;;;5073631;28;20073;-68
2021/08/23 09:34:14;;;;;;;2.97;0.50;;;13.70;81.70;;;;;;5074381;28;20027;-69
2021/08/23 09:36:39;;;;;;;1.52;0.60;;;13.70;82.20;;;;;;5073144;28;20422;-68
2021/08/23 09:39:15;;;;;;;0.70;0.70;;;13.70;81.50;;;;;;5073180;28;20028;-68
2021/08/23 09:41:42;;;;;;;1.35;0.47;;;13.70;82.80;;;;;;5072896;28;20112;-68
2021/08/23 09:44:13;;;;;;;5.03;1.00;;;13.80;82.80;;;;;;5073341;28;20082;-68
2021/08/23 09:46:43;;;;;;;1.77;0.57;;;13.90;82.40;;;;;;5073257;28;20031;-68
2021/08/23 09:49:13;;;;;;;0.80;0.45;;;13.90;81.50;;;;;;5073139;28;20067;-68
2021/08/23 09:51:41;;;;;;;0.88;0.68;;;13.80;80.60;;;;;;5073040;28;20078;-68
2021/08/23 09:54:11;;;;;;;1.13;0.80;;;13.80;79.50;;;;;;5072783;28;20051;-68
2021/08/23 09:56:48;;;;;;;1.35;0.55;;;13.80;80.50;;;;;;5072772;28;20120;-68
2021/08/23 09:59:29;;;;;;;1.30;0.70;;;13.70;81.20;;;;;;5072843;28;20610;-68
2021/08/23 10:01:57;;;;;;;4.10;0.60;;;13.80;81.00;;;;;;5072635;28;20049;-68
2021/08/23 10:04:24;;;;;;;2.58;0.70;;;13.80;80.70;;;;;;5072695;28;20040;-68
2021/08/23 10:06:51;;;;;;;1.20;0.75;;;13.80;81.30;;;;;;5072406;28;20032;-68
2021/08/23 10:09:22;;;;;;;1.55;0.60;;;13.90;82.30;;;;;;5072654;28;20043;-69
2021/08/23 10:11:49;;;;;;;8.13;0.80;;;13.90;81.10;;;;;;5072399;28;20021;-69
2021/08/23 10:14:15;;;;;;;4.70;0.63;;;14.00;83.10;;;;;;5072706;28;20025;-69
2021/08/23 10:16:41;;;;;;;1.05;0.45;;;14.10;84.10;;;;;;5072718;28;20109;-69
2021/08/23 10:19:08;;;;;;;0.85;0.63;;;14.20;80.30;;;;;;5072764;28;20111;-69
2021/08/23 10:21:36;;;;;;;0.85;0.40;;;14.10;80.50;;;;;;5072324;28;20040;-69
2021/08/23 10:24:03;;;;;;;0.50;0.40;;;14.00;80.80;;;;;;5072352;28;20037;-69
2021/08/23 10:26:38;;;;;;;1.65;0.65;;;14.00;81.80;;;;;;5072697;28;20020;-69
2021/08/23 10:29:09;;;;;;;1.73;0.63;;;13.90;80.60;;;;;;5072497;28;20103;-69
2021/08/23 10:31:37;;;;;;;0.63;0.50;;;13.90;81.60;;;;;;5072309;28;20021;-69
2021/08/23 10:34:28;;;;;;;2.13;0.47;;;13.90;81.20;;;;;;5072269;28;20493;-69
2021/08/23 10:36:54;;;;;;;0.85;0.50;;;14.00;80.40;;;;;;5071462;28;20032;-69
2021/08/23 10:39:22;;;;;;;0.95;0.40;;;14.00;80.10;;;;;;5072193;28;20112;-69
2021/08/23 10:41:53;;;;;;;7.18;1.23;;;14.10;80.20;;;;;;5071913;28;20104;-68
2021/08/23 10:44:24;;;;;;;4.43;0.65;;;14.00;80.70;;;;;;5072124;28;20525;-68
2021/08/23 10:46:50;;;;;;;1.17;0.40;;;14.10;79.60;;;;;;5071969;28;20024;-68
2021/08/23 10:49:16;;;;;;;1.60;0.50;;;13.90;78.10;;;;;;5072190;28;20104;-68
2021/08/23 10:51:45;;;;;;;0.75;0.47;;;13.80;78.00;;;;;;5071840;28;20029;-69
2021/08/23 10:54:38;;;;;;;2.28;0.93;;;13.80;79.30;;;;;;5071980;28;20049;-68
2021/08/23 10:57:05;;;;;;;4.72;0.50;;;13.80;80.30;;;;;;5070263;28;20455;-67
2021/08/23 10:59:49;;;;;;;0.65;0.50;;;13.90;80.70;;;;;;5062650;28;20024;-68
2021/08/23 11:02:32;;;;;;;4.28;0.60;;;14.00;79.70;;;;;;5062567;28;20056;-68
2021/08/23 11:05:04;;;;;;;0.43;0.43;;;14.10;81.70;;;;;;5062822;28;20465;-67
2021/08/23 11:07:32;;;;;;;1.27;0.63;;;14.20;80.80;;;;;;5054052;28;20055;-67
2021/08/23 11:10:04;;;;;;;4.03;0.50;;;14.10;80.60;;;;;;5051000;28;20024;-68
2021/08/23 11:12:48;;;;;;;2.05;0.60;;;14.10;80.90;;;;;;5054433;28;20032;-67
2021/08/23 11:15:30;;;;;;;0.40;0.40;;;14.10;80.50;;;;;;5058211;28;20470;-67
2021/08/23 11:18:03;;;;;;;0.85;0.30;;;13.90;80.00;;;;;;5054489;28;20031;-67
2021/08/23 11:20:35;;;;;;;0.60;0.40;;;13.90;81.30;;;;;;5052044;28;20025;-68
2021/08/23 11:23:25;;;;;;;0.40;0.40;;;13.90;80.20;;;;;;5051878;28;20029;-67
2021/08/23 11:26:01;;;;;;;0.82;0.60;;;13.90;80.60;;;;;;5051090;28;20111;-67
2021/08/23 11:28:30;;;;;;;0.32;0.30;;;13.90;80.50;;;;;;5051691;28;20552;-68
2021/08/23 11:30:59;;;;;;;0.65;0.43;;;14.10;80.60;;;;;;5051419;28;20041;-68
2021/08/23 11:33:24;;;;;;;0.35;0.30;;;14.20;79.50;;;;;;5051540;28;20108;-70
2021/08/23 11:35:50;;;;;;;0.90;0.50;;;14.20;77.90;;;;;;5051496;28;20065;-70
2021/08/23 11:38:16;;;;;;;6.20;1.08;;;14.10;76.40;;;;;;5051650;28;20032;-70
2021/08/23 11:40:45;;;;;;;0.70;0.50;;;14.00;76.00;;;;;;5051473;28;20031;-70
2021/08/23 11:43:11;;;;;;;3.92;0.80;;;13.90;77.40;;;;;;5051759;28;20040;-72
2021/08/23 11:45:40;;;;;;;2.83;0.77;;;13.90;77.50;;;;;;5051495;28;20529;-70
2021/08/23 11:48:06;;;;;;;7.43;1.85;;;14.00;76.00;;;;;;5062101;28;20040;-69
2021/08/23 11:50:32;;;;;;;0.98;0.40;;;14.10;82.90;;;;;;5075309;28;20029;-69
2021/08/23 11:53:09;;;;;;;0.70;0.50;;;14.50;78.20;;;;;;5074949;28;20044;-69
2021/08/23 11:55:38;;;;;;;6.10;0.80;;;14.50;76.40;;;;;;5075445;28;20025;-69
2021/08/23 11:58:17;;;;;;;0.90;0.50;;;14.40;77.30;;;;;;5075303;28;20032;-68
2021/08/23 12:00:44;;;;;;;1.25;0.60;;;14.30;77.50;;;;;;5075494;28;20035;-68
2021/08/23 12:03:14;;;;;;;12.63;1.50;;;14.20;76.70;;;;;;5074991;28;20033;-68
2021/08/23 12:05:42;;;;;;;1.50;0.57;;;14.10;77.30;;;;;;5074653;28;20029;-69
2021/08/23 12:08:34;;;;;;;0.52;0.40;;;14.10;77.40;;;;;;5075182;28;20487;-68
2021/08/23 12:11:00;;;;;;;2.67;0.57;;;14.10;76.50;;;;;;5075049;28;20025;-68
2021/08/23 12:13:40;;;;;;;0.47;0.38;;;14.10;79.10;;;;;;5074947;28;20024;-68
2021/08/23 12:16:11;;;;;;;0.70;0.60;;;14.10;75.30;;;;;;5075107;28;20047;-69
2021/08/23 12:18:46;;;;;;;2.45;0.40;;;14.10;75.60;;;;;;5075212;28;20116;-68
2021/08/23 12:21:16;;;;;;;1.50;0.70;;;14.10;75.80;;;;;;5075016;28;20028;-68
2021/08/23 12:23:53;;;;;;;;;;;14.10;76.00;;;;;;5074888;28;20033;-68
2021/08/23 12:26:27;;;;;;;0.60;0.40;;;14.10;75.30;;;;;;5074679;28;19905;-69
2021/08/23 12:28:57;;;;;;;0.50;0.45;;;14.00;76.70;;;;;;5074903;28;20032;-68
2021/08/23 12:31:22;;;;;;;2.58;0.38;;;14.00;77.80;;;;;;5074582;28;20482;-68
2021/08/23 12:33:48;;;;;;;0.90;0.60;;;14.10;77.40;;;;;;5074416;28;20052;-69
2021/08/23 12:36:14;;;;;;;0.63;0.50;;;14.10;78.00;;;;;;5074599;28;20060;-69
2021/08/23 12:38:41;;;;;;;4.57;0.75;;;14.20;78.60;;;;;;5074356;28;20419;-67
2021/08/23 12:41:08;;;;;;;1.42;0.70;;;14.30;77.50;;;;;;5074293;28;20412;-67
2021/08/23 12:43:41;;;;;;;0.80;0.50;;;14.40;77.30;;;;;;5074487;28;20041;-67
2021/08/23 12:46:07;;;;;;;3.03;0.70;;;14.50;76.00;;;;;;5069482;28;20020;-69
2021/08/23 12:48:33;;;;;;;1.02;0.40;;;14.50;77.90;;;;;;5054180;28;20052;-70
2021/08/23 12:51:01;;;;;;;8.65;0.55;;;14.60;75.70;;;;;;5054413;28;20322;-68
2021/08/23 12:53:27;;;;;;;4.28;0.57;;;14.70;78.00;;;;;;5053800;28;20056;-68
2021/08/23 12:55:53;;;;;;;1.10;0.70;;;14.60;75.40;;;;;;5053949;28;20032;-68
2021/08/23 12:58:19;;;;;;;0.50;0.43;;;14.50;74.90;;;;;;5053924;28;20024;-68
2021/08/23 13:00:45;;;;;;;0.90;0.60;;;14.50;74.50;;;;;;5053059;28;20019;-69
2021/08/23 13:03:11;;;;;;;1.23;0.68;;;14.40;73.80;;;;;;5053879;28;20483;-68
2021/08/23 13:05:37;;;;;;;2.20;0.68;;;14.50;73.60;;;;;;5053985;28;20035;-68
2021/08/23 13:08:03;;;;;;;3.70;0.68;;;14.50;72.40;;;;;;5053736;28;20024;-68
2021/08/23 13:10:28;;;;;;;2.63;1.00;;;14.50;73.20;;;;;;5054189;28;20028;-68
2021/08/23 13:12:54;;;;;;;1.30;0.60;;;14.60;74.70;;;;;;5054078;28;20045;-68
2021/08/23 13:15:20;;;;;;;3.13;0.70;;;14.60;74.40;;;;;;5053853;28;20025;-68
2021/08/23 13:17:46;;;;;;;4.03;0.60;;;14.40;73.30;;;;;;5054054;28;20025;-68
2021/08/23 13:20:12;;;;;;;1.83;0.60;;;14.40;73.10;;;;;;5053866;28;20491;-68
2021/08/23 13:22:38;;;;;;;1.20;0.70;;;14.30;74.20;;;;;;5053577;28;20025;-68